Benton, Kansas
Current Conditions -  °F | °C
As of 1:54 AM on Friday 31 Oct 2014 (Local Time) from KAAO Reporting Station
Clear Clear  
Wind Chill: 38°   Ceiling: Unl
Heat Index: 45°   Visibility: 10mi
Dew Point: 37°   Wind: 16mph
Humidity: 74%   Direction: 360°N
Pressure: 30.32"   Gusts: 28mph
Location:  37.79°N, 97.11°W
Report Text: KAAO 310654Z AUTO 36014G24KT 10SM CLR 07/03 A3032 RMK AO2 PK WND 35026/0639 SLP266 T00720028
Loading
Personal Weather Stations






























Interactive Weather Map
Tropical Storm Tracking
New forecast layout! Learn more

10-Day Weather Forecast

Advertisements
Track Severe Weather on mobile